Forside
METAR-TAF:

METAR-TAF

Lufthavne :

Singapore Changi Airport

Singapore, Singapore

Breddekreds: 01-22N, længdekreds: 103-59E, højde: 5 m

Aktuelle vejr

Denne rapport blev lavet for 34 minutter siden, kl. 17:00 UTC
Vind 3 kt fra nordvest, varierende mellem vest og østnordøst
Temperatur 26°C
Fugtighed 94%
Tryk 1012 hPa
Sigt: 9000 m
Nogle få skyer i en højde af 1600 ft
Brudte skyer i en højde af 30000 ft

METAR: WSSS 161700Z 31003KT 280V060 9000 FEW016 BKN300 26/25 Q1012 NOSIG

Tid: 01:34 (17:34 UTC)

Vejrudsigter

Denne rapport blev lavet for 34 minutter siden, kl. 17:00 UTC
Foreløbig gælder fra 16 på 18 UTC til 18 på 00 UTC
Vind 7 kt fra sydvest
Sigt 10 km eller mere
Nogle få skyer i en højde af 1200 ft, Cumulonimbus.
Brudte skyer i en højde af 1500 ft
Midlertidig
fra 17 på 04 UTC til 17 på 08 UTC
Sigt: 3000 m
Nogle få skyer i en højde af 1200 ft, Cumulonimbus.
Brudte skyer i en højde af 1500 ft
tordenbyger, regn

TAF: WSSS 161700Z 1618/1800 22007KT 9999 FEW012CB BKN015 TEMPO 1704/1708 3000 TSRA FEW012CB BKN015

Vejrobservationer og prognoser fra mere end 4000 lufthavne (METAR og TAF).

De gule og røde prikker repræsenterer de meteorologiske stationer.

Flyt musen over at se navnet på stationen.

Så klik over at se vejr observationer og prognoser.

At skifte det kort: Klik på de grønne knapper med et sort kors for at zoome ind; på den grønne knap med en bindestreg for at zoome ud; eller på de grønne pile for tilstødende kort.


METAR-TAF: